To NAV CANADA Home Page Login to a new session Search on AWWS site Feedback and Comments Disclaimer Vers la page française équivalente Tips FAQ What's new on the site To the Forecasts and Observations / NOTAM section To "File a Flight Plan" website Publications and other links Update of the User's profile FIC Telephone Numbers My Weather Data Folder Route Weather Data Regional Weather Data Local Weather Data To the Forecasts and Observations / NOTAM section
Request Generated 03/31/2015 at 09:42:09 UTC . Weather information available at that time is displayed.

METAR/TAF

KELOWNA/BC    (show WxCam)

METAR CYLW 310900Z AUTO 01004KT 330V050 9SM SCT170 SCT190 08/05 A2970
RMK SLP060=
METAR CYLW 310800Z AUTO 35003KT 9SM SCT150 BKN190 09/06 A2973 RMK
SLP070=
METAR CYLW 310700Z AUTO 02004KT 9SM FEW150 OVC180 10/06 A2974 RMK
SLP076=

TAF CYLW 310638Z 3107/3119 VRB03KT P6SM OVC140
BECMG 3115/3117 17012KT
BECMG 3117/3119 27012G22KT
RMK FCST BASED ON AUTO OBS. NXT FCST BY 311300Z=
Your time UTC time
Weather data provided by Environment Canada and NAV CANADA